Time;durP1;ratioP1;P1;durP2;ratioP2;P2;SDS_P1;SDS_P2;PMS_P1;PMS_P2;Temp;Humidity;BMP_temperature;BMP_pressure;BME280_temperature;BME280_humidity;BME280_pressure;Samples;Min_cycle;Max_cycle;Signal;HPM_P1;HPM_P2
2021/07/20 00:00:32;;;;;;;18.70;16.88;;;22.30;62.20;;;;;;5081744;28;20211;-90
2021/07/20 00:02:58;;;;;;;16.63;15.10;;;22.20;63.90;;;;;;5063856;28;20214;-89
2021/07/20 00:05:26;;;;;;;17.00;15.48;;;22.40;63.30;;;;;;5047113;28;20210;-89
2021/07/20 00:07:54;;;;;;;17.25;15.73;;;22.40;63.20;;;;;;5081933;28;20239;-90
2021/07/20 00:10:33;;;;;;;17.75;16.02;;;22.60;61.50;;;;;;5064549;28;20267;-89
2021/07/20 00:12:59;;;;;;;16.55;15.15;;;22.60;61.50;;;;;;5081600;28;20537;-88
2021/07/20 00:15:26;;;;;;;16.38;14.82;;;22.60;62.10;;;;;;5080981;28;20195;-89
2021/07/20 00:17:55;;;;;;;16.75;15.05;;;22.60;62.20;;;;;;5079485;28;20180;-89
2021/07/20 00:20:22;;;;;;;18.35;16.55;;;22.50;62.50;;;;;;5073748;28;20296;-89
2021/07/20 00:22:49;;;;;;;17.40;15.68;;;22.50;63.30;;;;;;5081621;28;20233;-89
2021/07/20 00:25:15;;;;;;;16.83;15.35;;;22.50;64.20;;;;;;5063303;28;20176;-90
2021/07/20 00:27:41;;;;;;;16.77;15.38;;;22.40;64.00;;;;;;5063922;28;20183;-90
2021/07/20 00:30:10;;;;;;;16.98;15.35;;;22.50;64.30;;;;;;5081622;28;20631;-89
2021/07/20 00:32:36;;;;;;;17.17;15.55;;;22.60;63.30;;;;;;5086407;28;20218;-89
2021/07/20 00:35:04;;;;;;;18.13;15.85;;;22.70;62.50;;;;;;5081572;28;20552;-90
2021/07/20 00:37:29;;;;;;;17.08;15.55;;;22.40;63.30;;;;;;5081731;28;20206;-89
2021/07/20 00:39:55;;;;;;;14.95;13.65;;;22.40;63.80;;;;;;5062646;28;20184;-90
2021/07/20 00:42:21;;;;;;;16.05;14.55;;;22.40;64.10;;;;;;5062923;28;20223;-90
2021/07/20 00:44:47;;;;;;;16.73;15.23;;;22.40;63.70;;;;;;5063449;28;20172;-89
2021/07/20 00:47:14;;;;;;;16.85;15.35;;;22.50;63.70;;;;;;5081333;28;20444;-90
2021/07/20 00:49:40;;;;;;;16.48;14.85;;;22.40;64.20;;;;;;5080645;28;20196;-90
2021/07/20 00:52:06;;;;;;;17.08;15.02;;;22.50;64.10;;;;;;5029022;28;20216;-90
2021/07/20 00:54:31;;;;;;;16.77;15.07;;;22.50;63.80;;;;;;5043402;28;20172;-90
2021/07/20 00:56:58;;;;;;;16.08;14.68;;;22.60;63.50;;;;;;5061364;28;20259;-90
2021/07/20 00:59:24;;;;;;;16.38;14.88;;;22.60;63.30;;;;;;5061218;28;20180;-90
2021/07/20 01:01:50;;;;;;;16.42;14.98;;;22.50;63.80;;;;;;5060668;28;20204;-90
2021/07/20 01:04:16;;;;;;;17.48;15.77;;;22.50;63.90;;;;;;5042895;28;20261;-90
2021/07/20 01:06:43;;;;;;;15.93;14.43;;;22.60;63.40;;;;;;5043318;28;20234;-89
2021/07/20 01:09:10;;;;;;;16.85;15.35;;;22.60;63.30;;;;;;5061306;28;20207;-90
2021/07/20 01:11:36;;;;;;;15.55;14.00;;;22.40;63.40;;;;;;5043547;28;20196;-90
2021/07/20 01:14:06;;;;;;;17.08;15.52;;;22.50;63.80;;;;;;5059719;28;20191;-90
2021/07/20 01:16:34;;;;;;;16.50;15.00;;;22.10;63.50;;;;;;5060970;28;20188;-90
2021/07/20 01:19:03;;;;;;;16.70;15.20;;;21.80;64.80;;;;;;5060963;28;20563;-90
2021/07/20 01:21:33;;;;;;;16.80;15.30;;;21.40;67.00;;;;;;5061482;28;20266;-89
2021/07/20 01:23:59;;;;;;;17.70;16.00;;;21.40;66.90;;;;;;5026541;28;20274;-89
2021/07/20 01:26:25;;;;;;;16.92;15.23;;;21.40;66.80;;;;;;5060224;28;20219;-89
2021/07/20 01:28:53;;;;;;;16.45;14.98;;;21.30;67.30;;;;;;5064258;28;20200;-89
2021/07/20 01:31:22;;;;;;;17.02;15.27;;;21.30;67.80;;;;;;5046001;28;20192;-90
2021/07/20 01:33:52;;;;;;;17.25;15.55;;;21.40;67.90;;;;;;5046923;28;20194;-90
2021/07/20 01:36:19;;;;;;;16.40;14.90;;;21.50;66.70;;;;;;5046408;28;20175;-89
2021/07/20 01:38:46;;;;;;;16.17;14.73;;;21.50;67.50;;;;;;5029197;28;20679;-90
2021/07/20 01:41:15;;;;;;;17.33;15.63;;;21.50;67.10;;;;;;5063687;28;20204;-90
2021/07/20 01:43:56;;;;;;;17.10;15.40;;;21.60;66.50;;;;;;5046027;28;20462;-89
2021/07/20 01:46:26;;;;;;;16.40;14.85;;;21.60;66.90;;;;;;5063958;28;20207;-90
2021/07/20 01:48:54;;;;;;;16.70;14.43;;;21.60;66.70;;;;;;5083092;28;20247;-89
2021/07/20 01:51:22;;;;;;;16.35;14.45;;;21.60;66.80;;;;;;5036198;28;20215;-89
2021/07/20 01:53:49;;;;;;;17.38;15.75;;;21.70;66.00;;;;;;5062857;28;20268;-88
2021/07/20 01:56:20;;;;;;;18.30;16.55;;;21.50;65.80;;;;;;5062646;28;20187;-90
2021/07/20 01:58:46;;;;;;;16.80;15.30;;;21.10;67.20;;;;;;5028076;28;20212;-88
2021/07/20 02:01:41;;;;;;;16.75;15.30;;;20.90;68.20;;;;;;5046944;28;20211;-88
2021/07/20 02:09:24;;;;;;;17.63;15.82;;;20.90;67.50;;;;;;5084651;28;20192;-89
2021/07/20 02:11:54;;;;;;;16.90;15.30;;;20.80;68.20;;;;;;5082726;28;20207;-89
2021/07/20 02:14:23;;;;;;;17.08;15.55;;;20.60;69.30;;;;;;5082397;28;20177;-90
2021/07/20 02:16:50;;;;;;;15.77;14.38;;;20.70;70.20;;;;;;5071235;28;20205;-90
2021/07/20 02:19:33;;;;;;;17.00;15.50;;;20.80;69.30;;;;;;5062551;28;20179;-90
2021/07/20 02:22:00;;;;;;;16.27;14.75;;;20.80;68.40;;;;;;5061983;28;20460;-87
2021/07/20 02:24:33;;;;;;;17.38;15.65;;;20.80;69.00;;;;;;5049737;28;20413;-89
2021/07/20 02:27:03;;;;;;;16.92;15.32;;;21.00;68.60;;;;;;5081629;28;20197;-88
2021/07/20 02:29:29;;;;;;;17.63;15.88;;;20.90;67.90;;;;;;5081381;28;20268;-89
2021/07/20 02:31:58;;;;;;;16.77;15.25;;;20.60;67.90;;;;;;5065185;28;20206;-88
2021/07/20 02:34:28;;;;;;;15.38;14.05;;;20.50;69.20;;;;;;5061780;28;20172;-88
2021/07/20 02:36:55;;;;;;;17.30;15.55;;;20.60;69.60;;;;;;5061263;28;20177;-88
2021/07/20 02:39:23;;;;;;;16.55;14.88;;;20.80;68.70;;;;;;5061041;28;20671;-88
2021/07/20 02:41:50;;;;;;;16.50;15.10;;;20.90;68.10;;;;;;5060906;28;20233;-89
2021/07/20 02:44:18;;;;;;;16.88;15.27;;;21.00;67.10;;;;;;5061830;28;20257;-89
2021/07/20 02:46:44;;;;;;;30.45;16.27;;;21.00;66.80;;;;;;5063514;28;20185;-88
2021/07/20 02:49:11;;;;;;;18.80;15.85;;;21.00;66.60;;;;;;5080979;28;20178;-88
2021/07/20 02:51:39;;;;;;;18.85;15.30;;;21.00;66.90;;;;;;5051044;28;20694;-88
2021/07/20 02:54:05;;;;;;;18.92;16.05;;;21.10;67.00;;;;;;5064761;28;20181;-89
2021/07/20 02:56:32;;;;;;;23.63;15.18;;;21.00;66.80;;;;;;5064585;28;20182;-89
2021/07/20 02:59:02;;;;;;;20.13;15.43;;;21.10;67.10;;;;;;5061830;28;20653;-88
2021/07/20 03:01:32;;;;;;;20.88;15.77;;;21.20;66.70;;;;;;5060716;28;20286;-88
2021/07/20 03:03:58;;;;;;;40.33;17.83;;;21.10;66.60;;;;;;5077313;28;20190;-89
2021/07/20 03:06:27;;;;;;;35.05;17.27;;;21.10;66.20;;;;;;5080869;28;20174;-88
2021/07/20 03:08:58;;;;;;;24.30;16.42;;;21.00;67.20;;;;;;5080700;28;20228;-88
2021/07/20 03:11:28;;;;;;;22.40;16.63;;;21.00;67.20;;;;;;5062673;28;20180;-89
2021/07/20 03:13:57;;;;;;;19.00;16.23;;;21.00;66.40;;;;;;5072056;28;20667;-88
2021/07/20 03:16:24;;;;;;;19.05;16.10;;;21.00;67.20;;;;;;5060158;28;20651;-88
2021/07/20 03:18:52;;;;;;;20.75;17.10;;;21.10;67.20;;;;;;5060104;28;20278;-88
2021/07/20 03:21:19;;;;;;;18.35;16.42;;;21.00;65.80;;;;;;5062832;28;20199;-90
2021/07/20 03:23:46;;;;;;;17.73;15.82;;;21.00;66.80;;;;;;5063136;28;20180;-88
2021/07/20 03:26:13;;;;;;;16.33;14.82;;;20.90;66.90;;;;;;5064062;28;20203;-89
2021/07/20 03:28:40;;;;;;;16.77;15.18;;;20.90;67.30;;;;;;5062790;28;20171;-88
2021/07/20 03:31:07;;;;;;;17.25;15.48;;;20.80;67.60;;;;;;5064328;28;20182;-90
2021/07/20 03:33:33;;;;;;;16.83;15.20;;;20.90;67.40;;;;;;5028734;28;20215;-88
2021/07/20 03:36:00;;;;;;;15.90;14.30;;;20.80;67.00;;;;;;5046032;28;20227;-88
2021/07/20 03:38:27;;;;;;;16.63;15.02;;;20.80;67.40;;;;;;5063185;28;20192;-88
2021/07/20 03:40:54;;;;;;;17.48;15.77;;;20.80;66.60;;;;;;5044670;28;20215;-88
2021/07/20 03:43:23;;;;;;;16.27;14.80;;;20.80;66.50;;;;;;5057997;28;20261;-88
2021/07/20 03:45:49;;;;;;;17.55;15.68;;;20.70;68.20;;;;;;5064987;28;20202;-89
2021/07/20 03:48:16;;;;;;;18.13;16.35;;;20.70;68.20;;;;;;5082425;28;20188;-88
2021/07/20 03:50:44;;;;;;;17.42;15.82;;;20.70;68.10;;;;;;5063640;28;20181;-88
2021/07/20 03:53:12;;;;;;;16.48;14.93;;;20.70;68.10;;;;;;5082348;28;20232;-89
2021/07/20 03:55:45;;;;;;;18.00;16.15;;;20.70;67.00;;;;;;5082369;28;20714;-89
2021/07/20 03:58:13;;;;;;;17.30;15.60;;;20.70;67.60;;;;;;5065492;28;20224;-89
2021/07/20 04:00:40;;;;;;;17.30;15.50;;;20.70;68.40;;;;;;5081465;28;20210;-89
2021/07/20 04:03:21;;;;;;;23.48;16.10;;;20.70;67.90;;;;;;5082017;28;20200;-89
2021/07/20 04:05:49;;;;;;;15.30;13.88;;;20.50;67.70;;;;;;5082059;28;20156;-89
2021/07/20 04:08:18;;;;;;;17.10;15.18;;;20.40;68.50;;;;;;5064177;28;20186;-89
2021/07/20 04:10:47;;;;;;;128.25;26.02;;;20.40;68.30;;;;;;5062074;28;20184;-88
2021/07/20 04:13:13;;;;;;;72.57;21.17;;;20.40;68.80;;;;;;5043291;28;20201;-88
2021/07/20 04:15:47;;;;;;;33.40;16.75;;;20.40;69.10;;;;;;5062247;28;20186;-90
2021/07/20 04:18:14;;;;;;;21.17;16.48;;;20.40;68.90;;;;;;5062363;28;20180;-89
2021/07/20 04:20:41;;;;;;;21.48;15.30;;;20.40;68.40;;;;;;5061708;28;20204;-89
2021/07/20 04:23:07;;;;;;;18.40;15.52;;;20.20;69.60;;;;;;5061688;28;20197;-88
2021/07/20 04:25:36;;;;;;;26.58;15.40;;;20.20;69.90;;;;;;5067371;28;20197;-90
2021/07/20 04:28:03;;;;;;;18.27;15.90;;;20.20;69.70;;;;;;5064040;28;20255;-90
2021/07/20 04:30:29;;;;;;;17.38;15.55;;;20.10;69.30;;;;;;5081669;28;20273;-89
2021/07/20 04:32:57;;;;;;;18.30;14.60;;;20.10;69.70;;;;;;5081997;28;20204;-89
2021/07/20 04:35:25;;;;;;;18.25;15.00;;;19.90;71.40;;;;;;5059288;28;20372;-89
2021/07/20 04:37:52;;;;;;;18.10;15.80;;;20.00;70.50;;;;;;5061064;28;20176;-88
2021/07/20 04:40:18;;;;;;;16.45;14.82;;;20.00;70.50;;;;;;5056409;28;20200;-90
2021/07/20 04:42:44;;;;;;;17.88;16.02;;;19.60;71.90;;;;;;5038506;28;21052;-89
2021/07/20 04:45:11;;;;;;;17.13;15.20;;;19.50;72.60;;;;;;5056601;28;20172;-89
2021/07/20 04:47:38;;;;;;;16.63;15.02;;;19.10;74.20;;;;;;5059860;28;20172;-89
2021/07/20 04:50:05;;;;;;;17.08;15.25;;;19.00;74.90;;;;;;5046514;28;20188;-89
2021/07/20 04:52:32;;;;;;;15.98;14.27;;;19.10;74.90;;;;;;5062179;28;20746;-88
2021/07/20 04:54:58;;;;;;;15.90;14.40;;;19.30;75.40;;;;;;5043810;28;20180;-89
2021/07/20 04:57:24;;;;;;;16.48;14.82;;;19.40;74.00;;;;;;5061530;28;20181;-89
2021/07/20 04:59:50;;;;;;;17.00;15.35;;;19.50;73.20;;;;;;5061260;28;20185;-90
2021/07/20 05:02:17;;;;;;;16.63;14.77;;;19.50;73.20;;;;;;5063802;28;20219;-89
2021/07/20 05:04:44;;;;;;;16.52;14.93;;;19.50;73.10;;;;;;5038202;28;20172;-89
2021/07/20 05:07:15;;;;;;;17.58;15.90;;;19.70;72.90;;;;;;5085141;28;20191;-89
2021/07/20 05:09:42;;;;;;;17.15;15.45;;;19.80;72.70;;;;;;5085627;28;20241;-89
2021/07/20 05:12:08;;;;;;;17.50;15.55;;;19.90;71.00;;;;;;5085287;28;20237;-89
2021/07/20 05:14:35;;;;;;;18.05;16.30;;;19.90;71.60;;;;;;5085085;28;20186;-89
2021/07/20 05:17:01;;;;;;;17.88;16.13;;;20.00;70.80;;;;;;5087399;28;20180;-89
2021/07/20 05:19:28;;;;;;;18.67;16.77;;;20.10;70.40;;;;;;5079916;28;20269;-88
2021/07/20 05:21:54;;;;;;;17.83;16.17;;;20.10;69.40;;;;;;5047537;28;20216;-89
2021/07/20 05:24:20;;;;;;;19.27;17.48;;;20.10;69.40;;;;;;5047950;28;20182;-89
2021/07/20 05:26:46;;;;;;;17.92;15.93;;;20.10;70.00;;;;;;5031212;28;20263;-89
2021/07/20 05:29:16;;;;;;;19.52;16.90;;;20.00;70.40;;;;;;5046749;28;20184;-89
2021/07/20 05:31:44;;;;;;;16.88;15.35;;;19.90;71.50;;;;;;5064349;28;20188;-89
2021/07/20 05:34:12;;;;;;;17.80;16.20;;;19.80;72.50;;;;;;5077084;28;20187;-88
2021/07/20 05:36:39;;;;;;;18.63;16.83;;;19.70;71.60;;;;;;5084619;28;20175;-89
2021/07/20 05:39:05;;;;;;;19.52;17.25;;;19.60;71.20;;;;;;5084701;28;20180;-88
2021/07/20 05:41:31;;;;;;;18.73;16.48;;;19.60;70.60;;;;;;5084391;28;20223;-89
2021/07/20 05:43:58;;;;;;;18.33;16.48;;;19.70;71.80;;;;;;5084339;28;20184;-89
2021/07/20 05:46:25;;;;;;;17.70;15.90;;;19.60;71.30;;;;;;5084787;28;20204;-89
2021/07/20 05:48:52;;;;;;;19.60;17.55;;;19.70;71.40;;;;;;5069465;28;20180;-89
2021/07/20 05:51:20;;;;;;;19.25;16.25;;;19.70;71.30;;;;;;5064651;28;20194;-90
2021/07/20 05:53:47;;;;;;;18.00;16.20;;;19.70;71.20;;;;;;5045780;28;20239;-89
2021/07/20 05:56:13;;;;;;;17.80;16.10;;;19.60;70.80;;;;;;5064054;28;20181;-89
2021/07/20 05:58:43;;;;;;;18.13;16.33;;;19.80;71.00;;;;;;5063556;28;20188;-89
2021/07/20 06:01:10;;;;;;;17.65;15.90;;;19.60;70.60;;;;;;5045283;28;20204;-89
2021/07/20 06:03:39;;;;;;;18.60;16.70;;;19.60;70.40;;;;;;5076401;28;20197;-90
2021/07/20 06:06:05;;;;;;;18.30;16.38;;;19.50;70.30;;;;;;5082579;28;20738;-89
2021/07/20 06:08:32;;;;;;;19.25;17.25;;;19.40;70.40;;;;;;5082754;28;20239;-89
2021/07/20 06:11:02;;;;;;;18.20;16.38;;;19.40;70.90;;;;;;5065015;28;20199;-89
2021/07/20 06:13:36;;;;;;;17.38;15.63;;;19.40;70.20;;;;;;5081599;28;20225;-88
2021/07/20 06:16:05;;;;;;;20.10;16.73;;;19.40;70.30;;;;;;5082000;28;20163;-88
2021/07/20 06:18:30;;;;;;;19.85;16.55;;;19.40;70.40;;;;;;5084947;28;20205;-88
2021/07/20 06:20:59;;;;;;;20.05;17.05;;;19.50;70.20;;;;;;5082914;28;20208;-89
2021/07/20 06:23:29;;;;;;;17.02;15.38;;;19.40;69.70;;;;;;5083783;28;20450;-89
2021/07/20 06:25:56;;;;;;;19.10;17.25;;;19.50;69.60;;;;;;5062720;28;20195;-87
2021/07/20 06:28:23;;;;;;;18.70;16.38;;;19.40;69.90;;;;;;5081153;28;20175;-88
2021/07/20 06:30:50;;;;;;;18.15;16.15;;;19.40;70.40;;;;;;5079808;28;20192;-88
2021/07/20 06:33:18;;;;;;;20.90;17.35;;;19.60;69.80;;;;;;5072253;28;20207;-88
2021/07/20 06:35:46;;;;;;;19.45;16.13;;;19.60;69.70;;;;;;5048547;28;20188;-87
2021/07/20 06:38:16;;;;;;;18.50;16.73;;;19.70;70.00;;;;;;5082163;28;20274;-88
2021/07/20 06:40:45;;;;;;;20.63;18.63;;;19.70;69.50;;;;;;5082496;28;20332;-88
2021/07/20 06:43:12;;;;;;;19.83;17.77;;;19.70;69.90;;;;;;5082952;28;20188;-88
2021/07/20 06:45:38;;;;;;;18.77;16.95;;;19.70;69.30;;;;;;5083214;28;20175;-88
2021/07/20 06:48:06;;;;;;;18.35;16.08;;;19.80;69.00;;;;;;5081949;28;20250;-89
2021/07/20 06:50:32;;;;;;;17.58;15.90;;;19.80;69.00;;;;;;5056007;28;20271;-88
2021/07/20 06:52:57;;;;;;;17.83;16.05;;;19.90;68.20;;;;;;5046231;28;20238;-89
2021/07/20 06:55:25;;;;;;;17.73;15.93;;;20.00;68.20;;;;;;5063102;28;20195;-88
2021/07/20 06:57:53;;;;;;;17.20;15.52;;;20.10;67.80;;;;;;5064016;28;20184;-87
2021/07/20 07:00:19;;;;;;;19.30;16.88;;;19.90;68.30;;;;;;5060673;28;20197;-89
2021/07/20 07:02:51;;;;;;;17.77;16.02;;;19.90;68.10;;;;;;5061731;28;20335;-88
2021/07/20 07:05:17;;;;;;;17.23;15.50;;;20.00;68.20;;;;;;5074181;28;20165;-88
2021/07/20 07:07:46;;;;;;;17.30;15.48;;;20.20;68.50;;;;;;5071439;28;20587;-88
2021/07/20 07:10:14;;;;;;;21.23;16.30;;;20.50;67.20;;;;;;5028450;28;20619;-88
2021/07/20 07:12:40;;;;;;;17.50;15.57;;;20.30;67.90;;;;;;5062331;28;20209;-87
2021/07/20 07:15:07;;;;;;;18.75;16.88;;;20.40;67.30;;;;;;5063598;28;20195;-87
2021/07/20 07:17:35;;;;;;;18.35;16.45;;;20.60;66.40;;;;;;5063229;28;20172;-88
2021/07/20 07:20:03;;;;;;;20.08;16.95;;;20.70;66.30;;;;;;5045808;28;20177;-87
2021/07/20 07:22:30;;;;;;;18.42;16.10;;;20.60;66.70;;;;;;5045428;28;20212;-87
2021/07/20 07:24:57;;;;;;;18.00;16.08;;;20.80;66.10;;;;;;5064332;28;20183;-87
2021/07/20 07:27:24;;;;;;;19.50;15.80;;;20.90;65.70;;;;;;5045427;28;20686;-87
2021/07/20 07:29:53;;;;;;;18.10;16.15;;;21.10;65.10;;;;;;5062947;28;20189;-87
2021/07/20 07:32:20;;;;;;;19.58;16.13;;;21.00;65.00;;;;;;5066233;28;20235;-88
2021/07/20 07:34:46;;;;;;;18.00;16.20;;;20.90;64.30;;;;;;5055285;28;20210;-87
2021/07/20 07:37:18;;;;;;;18.38;16.50;;;20.90;64.70;;;;;;5070489;28;20474;-89
2021/07/20 07:39:45;;;;;;;16.67;14.93;;;20.80;65.20;;;;;;5067330;28;20172;-89
2021/07/20 07:42:12;;;;;;;17.17;15.50;;;21.10;65.10;;;;;;5059370;28;20252;-89
2021/07/20 07:44:40;;;;;;;19.15;15.65;;;21.30;63.80;;;;;;5056107;28;20243;-88
2021/07/20 07:47:08;;;;;;;18.15;16.33;;;21.40;63.60;;;;;;5069309;28;20180;-88
2021/07/20 07:49:35;;;;;;;18.02;16.13;;;21.30;63.70;;;;;;5059222;28;20181;-88
2021/07/20 07:52:01;;;;;;;17.15;14.95;;;21.20;64.10;;;;;;5071859;28;20371;-87
2021/07/20 07:54:28;;;;;;;17.63;15.75;;;21.20;65.30;;;;;;5063485;28;20630;-88
2021/07/20 07:56:54;;;;;;;16.40;14.70;;;21.50;63.80;;;;;;5045191;28;20193;-87
2021/07/20 07:59:23;;;;;;;18.08;15.73;;;21.60;63.70;;;;;;5045193;28;20283;-87
2021/07/20 08:01:51;;;;;;;16.80;15.07;;;21.80;63.20;;;;;;5045433;28;20659;-87
2021/07/20 08:04:24;;;;;;;18.65;16.67;;;21.90;62.20;;;;;;5049113;28;20191;-88
2021/07/20 08:06:51;;;;;;;17.45;15.63;;;21.90;61.20;;;;;;5063752;28;20176;-87
2021/07/20 08:09:19;;;;;;;17.13;15.32;;;22.10;61.90;;;;;;5059815;28;20186;-87
2021/07/20 08:11:46;;;;;;;17.45;15.63;;;21.90;61.20;;;;;;5062338;28;20219;-87
2021/07/20 08:14:15;;;;;;;17.52;15.63;;;21.80;61.70;;;;;;5041351;28;20567;-88
2021/07/20 08:16:45;;;;;;;17.73;15.18;;;22.00;62.40;;;;;;5068002;28;20180;-89
2021/07/20 08:19:11;;;;;;;16.75;14.90;;;21.90;61.40;;;;;;5067993;28;20182;-87
2021/07/20 08:21:38;;;;;;;17.05;14.77;;;22.00;61.70;;;;;;5053269;28;20213;-90
2021/07/20 08:24:04;;;;;;;16.73;14.38;;;22.10;61.50;;;;;;5052055;28;20180;-91
2021/07/20 08:26:49;;;;;;;16.67;14.80;;;22.20;60.30;;;;;;5041366;28;20202;-90
2021/07/20 08:29:19;;;;;;;16.77;14.80;;;22.30;60.10;;;;;;5083771;28;20175;-90
2021/07/20 08:31:59;;;;;;;14.85;13.45;;;22.40;59.40;;;;;;5080921;28;20200;-90
2021/07/20 08:34:28;;;;;;;16.65;14.77;;;22.50;58.70;;;;;;5052848;28;20179;-89
2021/07/20 08:36:56;;;;;;;16.77;14.38;;;22.40;58.70;;;;;;5054282;28;20283;-90
2021/07/20 08:39:25;;;;;;;15.35;13.95;;;22.50;59.60;;;;;;5068715;28;20205;-89
2021/07/20 08:42:17;;;;;;;17.65;14.10;;;22.60;58.50;;;;;;5082863;28;20769;-88
2021/07/20 08:45:03;;;;;;;14.68;13.27;;;22.60;57.80;;;;;;5068873;28;20179;-91
2021/07/20 08:47:59;;;;;;;14.40;13.00;;;22.70;57.20;;;;;;5068464;28;20186;-90
2021/07/20 08:50:29;;;;;;;15.60;14.02;;;22.80;58.30;;;;;;5072938;28;20179;-90
2021/07/20 08:52:58;;;;;;;14.75;13.45;;;22.90;58.60;;;;;;5088386;28;20237;-91
2021/07/20 08:55:27;;;;;;;16.08;14.43;;;23.00;58.50;;;;;;5088005;28;20210;-88
2021/07/20 08:57:56;;;;;;;16.90;13.25;;;23.00;58.90;;;;;;5087835;28;20179;-89
2021/07/20 09:00:25;;;;;;;14.52;13.07;;;23.10;58.50;;;;;;5069118;28;20187;-89
2021/07/20 09:03:05;;;;;;;14.82;13.18;;;23.40;57.40;;;;;;5079384;28;20211;-88
2021/07/20 09:05:50;;;;;;;15.48;13.95;;;23.40;55.70;;;;;;5076856;28;20176;-88
2021/07/20 09:08:34;;;;;;;14.63;13.32;;;23.50;55.00;;;;;;5079562;28;20161;-89
2021/07/20 09:11:19;;;;;;;14.82;13.32;;;23.30;55.60;;;;;;5081485;28;20195;-90
2021/07/20 09:14:18;;;;;;;13.98;12.57;;;23.40;57.30;;;;;;5063688;28;20235;-87
2021/07/20 09:16:48;;;;;;;14.15;12.38;;;23.50;57.00;;;;;;5067260;28;20711;-88
2021/07/20 09:19:33;;;;;;;14.98;13.35;;;23.50;55.40;;;;;;5032624;28;20279;-88
2021/07/20 09:22:05;;;;;;;15.35;12.55;;;23.70;54.30;;;;;;5057836;28;20208;-91
2021/07/20 09:24:46;;;;;;;14.57;13.15;;;23.70;55.00;;;;;;5047377;28;20173;-88
2021/07/20 09:27:24;;;;;;;15.85;14.05;;;24.00;52.90;;;;;;5066571;28;20647;-88
2021/07/20 09:29:53;;;;;;;18.00;13.55;;;23.90;52.40;;;;;;5068396;28;20187;-88
2021/07/20 09:32:46;;;;;;;14.65;13.27;;;24.10;52.20;;;;;;5048353;28;20196;-90
2021/07/20 09:35:44;;;;;;;14.23;12.90;;;24.30;51.70;;;;;;5074746;28;20192;-90
2021/07/20 09:38:48;;;;;;;15.13;13.63;;;24.60;51.10;;;;;;5067365;28;20176;-89
2021/07/20 09:41:39;;;;;;;17.67;14.55;;;24.60;50.60;;;;;;5067434;28;20290;-89
2021/07/20 09:44:26;;;;;;;14.23;12.82;;;24.60;48.10;;;;;;5066221;28;20172;-91
2021/07/20 09:47:06;;;;;;;15.77;14.00;;;24.60;48.30;;;;;;5067665;28;20211;-91
2021/07/20 09:49:50;;;;;;;14.98;13.57;;;24.70;46.30;;;;;;5075132;28;20193;-90
2021/07/20 09:52:31;;;;;;;14.93;13.32;;;24.50;47.80;;;;;;5081725;28;20282;-91
2021/07/20 09:55:05;;;;;;;16.27;14.45;;;24.60;47.80;;;;;;5074586;28;20176;-90
2021/07/20 09:58:14;;;;;;;14.93;13.23;;;24.60;48.10;;;;;;5070638;28;20186;-89
2021/07/20 10:00:58;;;;;;;13.45;12.05;;;24.60;48.10;;;;;;5080203;28;20196;-89
2021/07/20 10:03:45;;;;;;;14.93;13.48;;;24.90;45.50;;;;;;5067740;28;20192;-91
2021/07/20 10:06:35;;;;;;;15.38;13.75;;;25.00;46.80;;;;;;5081413;28;20243;-90
2021/07/20 10:09:12;;;;;;;16.60;14.18;;;25.50;46.50;;;;;;5057689;28;20176;-89
2021/07/20 10:11:42;;;;;;;17.73;14.32;;;25.10;46.20;;;;;;5088255;28;20195;-89
2021/07/20 10:14:17;;;;;;;15.63;13.85;;;25.20;46.20;;;;;;5059615;28;20212;-89
2021/07/20 10:16:57;;;;;;;16.30;14.70;;;25.00;46.40;;;;;;5064816;28;20727;-90
2021/07/20 10:19:50;;;;;;;15.27;13.88;;;25.30;46.50;;;;;;5071865;28;20245;-90
2021/07/20 10:22:24;;;;;;;15.52;13.93;;;25.20;46.60;;;;;;5065656;28;20331;-89
2021/07/20 10:25:04;;;;;;;16.08;14.15;;;25.50;44.00;;;;;;5082595;28;20188;-88
2021/07/20 10:27:45;;;;;;;17.58;15.00;;;25.50;45.00;;;;;;5057249;28;20231;-89
2021/07/20 10:30:13;;;;;;;15.70;14.10;;;25.40;43.80;;;;;;5078731;28;20705;-89
2021/07/20 10:33:14;;;;;;;15.93;14.32;;;25.50;44.00;;;;;;5069783;28;20212;-88
2021/07/20 10:36:01;;;;;;;15.82;14.10;;;25.70;44.10;;;;;;5076861;28;20192;-89
2021/07/20 10:38:37;;;;;;;16.80;15.13;;;25.90;44.10;;;;;;5076270;28;20188;-89
2021/07/20 10:41:06;;;;;;;16.10;14.60;;;25.90;43.90;;;;;;5078874;28;20337;-89
2021/07/20 10:43:36;;;;;;;18.30;14.55;;;26.50;42.60;;;;;;5074025;28;20258;-90
2021/07/20 10:46:05;;;;;;;15.38;13.57;;;26.80;42.20;;;;;;5079423;28;20230;-89
2021/07/20 10:48:37;;;;;;;15.85;14.35;;;27.10;42.30;;;;;;5076978;28;20169;-89
2021/07/20 10:51:12;;;;;;;17.60;15.63;;;27.20;42.70;;;;;;5078489;28;20186;-88
2021/07/20 10:54:20;;;;;;;15.82;14.23;;;27.30;40.50;;;;;;5074655;28;20198;-89
2021/07/20 10:56:59;;;;;;;17.00;15.32;;;27.20;42.30;;;;;;5078413;28;20209;-89
2021/07/20 10:59:57;;;;;;;17.48;15.15;;;27.30;42.30;;;;;;5073119;28;20183;-89
2021/07/20 11:02:31;;;;;;;16.77;15.07;;;27.30;41.30;;;;;;5073374;28;20291;-89
2021/07/20 11:05:09;;;;;;;16.35;14.65;;;27.60;42.30;;;;;;5073191;28;20208;-89
2021/07/20 11:07:48;;;;;;;16.70;15.00;;;27.80;41.10;;;;;;5069324;28;20271;-89
2021/07/20 11:10:33;;;;;;;19.98;15.02;;;27.70;41.50;;;;;;5061207;28;20187;-90
2021/07/20 11:13:05;;;;;;;16.48;15.00;;;28.00;40.50;;;;;;5078176;28;20208;-89
2021/07/20 11:15:33;;;;;;;16.67;14.75;;;27.70;41.70;;;;;;5080434;28;20176;-89
2021/07/20 11:18:13;;;;;;;16.63;14.93;;;27.30;42.30;;;;;;5060348;28;20181;-88
2021/07/20 11:20:41;;;;;;;22.25;15.85;;;27.10;43.00;;;;;;5063539;28;20211;-90
2021/07/20 11:23:09;;;;;;;16.63;15.05;;;27.30;42.00;;;;;;5051373;28;20246;-89
2021/07/20 11:25:38;;;;;;;15.70;14.27;;;27.60;40.60;;;;;;5074151;28;20204;-88
2021/07/20 11:28:05;;;;;;;16.13;14.35;;;27.30;42.10;;;;;;5055057;28;20176;-88
2021/07/20 11:30:34;;;;;;;17.02;15.32;;;27.60;41.70;;;;;;5078859;28;20177;-89
2021/07/20 11:33:11;;;;;;;17.45;15.75;;;27.80;40.80;;;;;;5058336;28;20200;-89
2021/07/20 11:35:41;;;;;;;17.90;16.10;;;27.90;39.90;;;;;;5074943;28;20238;-91
2021/07/20 11:38:14;;;;;;;17.23;15.63;;;28.30;39.80;;;;;;5077289;28;20535;-87
2021/07/20 11:40:49;;;;;;;16.67;15.07;;;28.30;38.50;;;;;;5046144;28;20219;-87
2021/07/20 11:43:32;;;;;;;15.63;13.55;;;28.20;38.20;;;;;;5072902;28;20284;-87
2021/07/20 11:46:12;;;;;;;18.17;14.95;;;28.40;37.10;;;;;;5077098;28;20632;-87
2021/07/20 11:49:00;;;;;;;16.30;14.70;;;28.40;38.00;;;;;;5077214;28;20218;-88
2021/07/20 11:51:47;;;;;;;16.05;13.68;;;28.10;38.70;;;;;;5083062;23;20200;-90
2021/07/20 11:54:54;;;;;;;17.98;15.05;;;28.00;38.50;;;;;;5015943;28;20197;-88
2021/07/20 11:57:57;;;;;;;16.85;15.05;;;28.60;37.80;;;;;;5020157;28;20708;-89
2021/07/20 12:00:35;;;;;;;16.80;14.35;;;28.20;38.50;;;;;;5019524;28;20181;-88
2021/07/20 12:03:35;;;;;;;16.52;14.85;;;28.50;38.60;;;;;;5026404;28;20320;-88
2021/07/20 12:06:00;;;;;;;15.45;13.95;;;28.90;37.00;;;;;;5022976;28;20233;-88
2021/07/20 12:09:04;;;;;;;16.08;14.38;;;29.20;38.10;;;;;;5020645;28;20181;-89
2021/07/20 12:11:32;;;;;;;15.98;14.57;;;29.60;36.90;;;;;;5014890;28;20328;-90
2021/07/20 12:14:06;;;;;;;15.60;14.18;;;29.00;37.10;;;;;;5016680;28;20205;-90
2021/07/20 12:16:40;;;;;;;15.95;14.32;;;29.30;36.10;;;;;;5000863;28;20210;-89
2021/07/20 12:19:06;;;;;;;16.92;15.32;;;29.20;36.90;;;;;;5011668;28;20201;-89
2021/07/20 12:21:34;;;;;;;15.05;13.75;;;29.10;36.80;;;;;;5002996;28;20213;-90
2021/07/20 12:24:09;;;;;;;16.15;14.45;;;29.20;38.10;;;;;;5021993;28;20173;-91
2021/07/20 12:26:36;;;;;;;16.08;14.55;;;29.20;37.90;;;;;;5018710;28;20197;-93
2021/07/20 12:29:12;;;;;;;16.10;14.50;;;28.90;37.20;;;;;;5021162;28;20197;-92
2021/07/20 12:31:39;;;;;;;16.08;14.50;;;29.40;37.60;;;;;;5016407;28;20178;-90
2021/07/20 12:34:07;;;;;;;14.55;13.15;;;29.80;37.00;;;;;;5016752;28;20239;-90
2021/07/20 12:36:34;;;;;;;14.98;13.43;;;29.90;37.00;;;;;;5014124;28;20290;-90
2021/07/20 12:39:17;;;;;;;14.93;13.65;;;29.90;35.50;;;;;;5022365;28;20185;-89
2021/07/20 12:41:53;;;;;;;15.27;13.75;;;30.10;35.10;;;;;;5022016;28;20197;-90
2021/07/20 12:44:21;;;;;;;14.23;12.77;;;30.70;33.10;;;;;;5022875;28;20585;-90
2021/07/20 12:46:47;;;;;;;17.38;15.60;;;31.00;33.60;;;;;;5022659;28;20209;-90
2021/07/20 12:49:16;;;;;;;15.45;14.02;;;31.10;34.20;;;;;;5022008;28;20186;-89
2021/07/20 12:51:47;;;;;;;15.40;14.00;;;31.00;33.40;;;;;;5021860;28;20186;-90